Time;durP1;ratioP1;P1;durP2;ratioP2;P2;SDS_P1;SDS_P2;PMS_P1;PMS_P2;Temp;Humidity;BMP_temperature;BMP_pressure;BME280_temperature;BME280_humidity;BME280_pressure;Samples;Min_cycle;Max_cycle;Signal;HPM_P1;HPM_P2
2022/02/14 00:01:52;;;;;;;;;;;;;;;;;;5033060;28;19921;-67
2022/02/14 00:04:18;;;;;;;;;;;;;;;;;;5033110;28;19924;-68
2022/02/14 00:06:44;;;;;;;;;;;;;;;;;;5026521;28;20364;-67
2022/02/14 00:09:10;;;;;;;;;;;;;;;;;;5038720;28;19916;-67
2022/02/14 00:11:36;;;;;;;;;;;;;;;;;;5036779;28;20580;-67
2022/02/14 00:14:02;;;;;;;;;;;;;;;;;;5034198;28;20007;-67
2022/02/14 00:16:28;;;;;;;;;;;;;;;;;;5036762;28;19963;-67
2022/02/14 00:18:54;;;;;;;;;;;;;;;;;;5035306;28;19921;-67
2022/02/14 00:21:20;;;;;;;;;;;;;;;;;;5040630;28;20644;-66
2022/02/14 00:23:46;;;;;;;;;;;;;;;;;;5035217;28;19917;-66
2022/02/14 00:26:12;;;;;;;;;;;;;;;;;;5021755;28;19920;-67
2022/02/14 00:28:38;;;;;;;;;;;;;;;;;;5034478;28;20105;-67
2022/02/14 00:31:04;;;;;;;;;;;;;;;;;;5022756;28;19924;-67
2022/02/14 00:33:30;;;;;;;;;;;;;;;;;;5042287;28;19916;-67
2022/02/14 00:35:56;;;;;;;;;;;;;;;;;;5037081;28;19961;-67
2022/02/14 00:38:22;;;;;;;;;;;;;;;;;;5024832;28;20366;-67
2022/02/14 00:40:48;;;;;;;;;;;;;;;;;;5032329;28;19916;-67
2022/02/14 00:43:14;;;;;;;;;;;;;;;;;;5027507;28;19924;-66
2022/02/14 00:45:40;;;;;;;;;;;;;;;;;;5039248;28;19916;-66
2022/02/14 00:48:07;;;;;;;;;;;;;;;;;;5040835;28;19966;-66
2022/02/14 00:50:33;;;;;;;;;;;;;;;;;;5037276;28;19924;-67
2022/02/14 00:52:59;;;;;;;;;;;;;;;;;;5031013;28;19966;-67
2022/02/14 00:55:25;;;;;;;;;;;;;;;;;;5042036;28;20383;-68
2022/02/14 00:57:51;;;;;;;;;;;;;;;;;;5038977;28;19927;-67
2022/02/14 01:00:17;;;;;;;;;;;;;;;;;;5038234;28;20590;-67
2022/02/14 01:02:43;;;;;;;;;;;;;;;;;;5018120;28;20701;-69
2022/02/14 01:05:10;;;;;;;;;;;;;;;;;;5008270;28;19920;-67
2022/02/14 01:07:36;;;;;;;;;;;;;;;;;;5009810;28;19924;-67
2022/02/14 01:10:02;;;;;;;;;;;;;;;;;;5038710;28;20527;-66
2022/02/14 01:12:28;;;;;;;;;;;;;;;;;;5045506;28;19993;-67
2022/02/14 01:14:54;;;;;;;;;;;;;;;;;;5039262;28;20371;-67
2022/02/14 01:17:20;;;;;;;;;;;;;;;;;;5049560;28;19954;-67
2022/02/14 01:19:46;;;;;;;;;;;;;;;;;;5062306;28;20708;-67
2022/02/14 01:22:13;;;;;;;;;;;;;;;;;;5029412;28;20016;-68
2022/02/14 01:24:39;;;;;;;;;;;;;;;;;;5034030;28;20787;-67
2022/02/14 01:27:05;;;;;;;;;;;;;;;;;;5026069;28;20285;-68
2022/02/14 01:29:31;;;;;;;;;;;;;;;;;;5047236;28;19912;-68
2022/02/14 01:31:57;;;;;;;;;;;;;;;;;;5044463;28;20535;-67
2022/02/14 01:34:23;;;;;;;;;;;;;;;;;;5048173;28;20126;-68
2022/02/14 01:36:49;;;;;;;;;;;;;;;;;;5027930;28;19964;-67
2022/02/14 01:39:15;;;;;;;;;;;;;;;;;;5046220;28;20038;-68
2022/02/14 01:41:41;;;;;;;;;;;;;;;;;;4988606;28;19925;-67
2022/02/14 01:44:07;;;;;;;;;;;;;;;;;;4994309;28;19967;-67
2022/02/14 01:46:33;;;;;;;;;;;;;;;;;;4979491;28;20297;-67
2022/02/14 01:49:00;;;;;;;;;;;;;;;;;;4970387;28;19917;-67
2022/02/14 01:51:26;;;;;;;;;;;;;;;;;;4993369;28;20210;-67
2022/02/14 01:53:52;;;;;;;;;;;;;;;;;;4990365;28;19939;-67
2022/02/14 01:56:18;;;;;;;;;;;;;;;;;;4972657;28;20023;-67
2022/02/14 01:58:45;;;;;;;;;;;;;;;;;;4987584;28;19916;-67
2022/02/14 02:01:11;;;;;;;;;;;;;;;;;;4969563;28;19960;-67
2022/02/14 02:03:37;;;;;;;;;;;;;;;;;;4970266;28;19921;-67
2022/02/14 02:06:04;;;;;;;;;;;;;;;;;;4968348;28;19955;-67
2022/02/14 02:08:30;;;;;;;;;;;;;;;;;;4968604;28;19917;-67
2022/02/14 02:12:22;;;;;;;;;;;;;;;;;;4971308;28;20048;-67
2022/02/14 02:13:42;;;;;;;;;;;;;;;;;;4965912;28;19982;-67
2022/02/14 02:16:08;;;;;;;;;;;;;;;;;;4965487;28;19924;-68
2022/02/14 02:18:34;;;;;;;;;;;;;;;;;;5022206;28;19917;-67
2022/02/14 02:21:00;;;;;;;;;;;;;;;;;;5027384;28;19993;-67
2022/02/14 02:23:26;;;;;;;;;;;;;;;;;;5028767;28;19921;-66
2022/02/14 02:25:52;;;;;;;;;;;;;;;;;;5031709;28;19916;-67
2022/02/14 02:28:18;;;;;;;;;;;;;;;;;;5027947;28;20095;-67
2022/02/14 02:30:45;;;;;;;;;;;;;;;;;;5030479;28;19925;-67
2022/02/14 02:33:11;;;;;;;;;;;;;;;;;;5030033;28;19917;-70
2022/02/14 02:35:37;;;;;;;;;;;;;;;;;;5024458;28;19927;-67
2022/02/14 02:38:03;;;;;;;;;;;;;;;;;;5029518;28;19928;-67
2022/02/14 02:40:29;;;;;;;;;;;;;;;;;;5029519;28;19916;-67
2022/02/14 02:42:56;;;;;;;;;;;;;;;;;;5026253;28;19920;-68
2022/02/14 02:45:22;;;;;;;;;;;;;;;;;;5030409;28;19970;-67
2022/02/14 02:47:48;;;;;;;;;;;;;;;;;;5020075;28;19924;-67
2022/02/14 02:50:17;;;;;;;;;;;;;;;;;;5028427;28;20028;-67
2022/02/14 02:52:43;;;;;;;;;;;;;;;;;;5030182;28;20393;-68
2022/02/14 02:55:09;;;;;;;;;;;;;;;;;;5039733;28;19917;-67
2022/02/14 02:57:35;;;;;;;;;;;;;;;;;;5029044;28;20450;-67
2022/02/14 03:00:01;;;;;;;;;;;;;;;;;;5024792;28;20067;-66
2022/02/14 03:02:27;;;;;;;;;;;;;;;;;;5046514;28;19923;-67
2022/02/14 03:04:53;;;;;;;;;;;;;;;;;;5043336;28;20393;-67
2022/02/14 03:07:19;;;;;;;;;;;;;;;;;;5044396;28;19919;-67
2022/02/14 03:09:45;;;;;;;;;;;;;;;;;;5047401;28;19917;-68
2022/02/14 03:12:11;;;;;;;;;;;;;;;;;;5045633;28;19971;-68
2022/02/14 03:14:39;;;;;;;;;;;;;;;;;;5047620;28;19971;-68
2022/02/14 03:17:05;;;;;;;;;;;;;;;;;;5041534;28;19923;-68
2022/02/14 03:19:31;;;;;;;;;;;;;;;;;;5052682;28;20302;-68
2022/02/14 03:21:57;;;;;;;;;;;;;;;;;;5024450;28;19977;-68
2022/02/14 03:24:23;;;;;;;;;;;;;;;;;;5043755;28;19960;-68
2022/02/14 03:26:49;;;;;;;;;;;;;;;;;;5043394;28;20470;-68
2022/02/14 03:29:17;;;;;;;;;;;;;;;;;;5047936;28;19928;-68
2022/02/14 03:31:43;;;;;;;;;;;;;;;;;;5040291;28;20008;-69
2022/02/14 03:34:09;;;;;;;;;;;;;;;;;;5028077;28;20015;-67
2022/02/14 03:36:35;;;;;;;;;;;;;;;;;;5032697;28;19913;-67
2022/02/14 03:39:01;;;;;;;;;;;;;;;;;;5045986;28;19927;-68
2022/02/14 03:41:27;;;;;;;;;;;;;;;;;;5045136;28;19924;-67
2022/02/14 03:43:53;;;;;;;;;;;;;;;;;;5044580;28;19920;-67
2022/02/14 03:46:19;;;;;;;;;;;;;;;;;;5045914;28;20019;-67
2022/02/14 03:48:45;;;;;;;;;;;;;;;;;;5046067;28;19978;-67
2022/02/14 03:51:12;;;;;;;;;;;;;;;;;;5051273;28;19927;-67
2022/02/14 03:53:38;;;;;;;;;;;;;;;;;;5047507;28;19928;-67
2022/02/14 03:56:05;;;;;;;;;;;;;;;;;;5047755;28;20251;-67
2022/02/14 03:58:31;;;;;;;;;;;;;;;;;;5053419;28;19917;-68
2022/02/14 04:00:58;;;;;;;;;;;;;;;;;;5039917;28;20408;-67
2022/02/14 04:03:23;;;;;;;;;;;;;;;;;;5049586;28;19920;-67
2022/02/14 04:05:50;;;;;;;;;;;;;;;;;;5041707;28;19928;-66
2022/02/14 04:08:16;;;;;;;;;;;;;;;;;;5049032;28;19917;-67
2022/02/14 04:10:42;;;;;;;;;;;;;;;;;;5047307;28;19927;-67
2022/02/14 04:13:08;;;;;;;;;;;;;;;;;;5046108;28;20333;-67
2022/02/14 04:15:34;;;;;;;;;;;;;;;;;;5051025;28;20458;-67
2022/02/14 04:18:00;;;;;;;;;;;;;;;;;;5049489;28;19920;-67
2022/02/14 04:20:26;;;;;;;;;;;;;;;;;;5050820;28;20339;-67
2022/02/14 04:22:52;;;;;;;;;;;;;;;;;;5056975;28;19928;-67
2022/02/14 04:25:18;;;;;;;;;;;;;;;;;;5048716;28;19927;-67
2022/02/14 04:27:44;;;;;;;;;;;;;;;;;;5035830;28;19920;-67
2022/02/14 04:30:10;;;;;;;;;;;;;;;;;;5033201;28;19927;-67
2022/02/14 04:32:36;;;;;;;;;;;;;;;;;;5034439;28;19916;-67
2022/02/14 04:35:03;;;;;;;;;;;;;;;;;;5045239;28;20613;-67
2022/02/14 04:37:30;;;;;;;;;;;;;;;;;;5051121;28;19923;-67
2022/02/14 04:39:56;;;;;;;;;;;;;;;;;;5051002;28;19942;-67
2022/02/14 04:42:22;;;;;;;;;;;;;;;;;;5051589;28;20015;-67
2022/02/14 04:44:48;;;;;;;;;;;;;;;;;;5029125;28;19917;-67
2022/02/14 04:47:14;;;;;;;;;;;;;;;;;;5053413;28;19932;-67
2022/02/14 04:49:41;;;;;;;;;;;;;;;;;;5055274;28;19961;-67
2022/02/14 04:52:07;;;;;;;;;;;;;;;;;;5026423;28;19929;-67
2022/02/14 04:54:32;;;;;;;;;;;;;;;;;;5050302;28;19923;-67
2022/02/14 04:56:58;;;;;;;;;;;;;;;;;;5029703;28;20015;-66
2022/02/14 04:59:24;;;;;;;;;;;;;;;;;;5056027;28;19920;-66
2022/02/14 05:01:51;;;;;;;;;;;;;;;;;;5027019;28;19981;-67
2022/02/14 05:04:17;;;;;;;;;;;;;;;;;;5046613;28;19916;-67
2022/02/14 05:06:43;;;;;;;;;;;;;;;;;;5051993;28;20476;-67
2022/02/14 05:09:09;;;;;;;;;;;;;;;;;;5048303;28;20622;-67
2022/02/14 05:11:35;;;;;;;;;;;;;;;;;;5048368;28;19963;-66
2022/02/14 05:14:01;;;;;;;;;;;;;;;;;;5045810;28;20157;-67
2022/02/14 05:16:27;;;;;;;;;;;;;;;;;;5048344;28;19917;-67
2022/02/14 05:18:53;;;;;;;;;;;;;;;;;;5047841;28;20283;-67
2022/02/14 05:21:20;;;;;;;;;;;;;;;;;;5045254;28;19921;-67
2022/02/14 05:23:46;;;;;;;;;;;;;;;;;;5040632;28;19922;-67
2022/02/14 05:26:12;;;;;;;;;;;;;;;;;;5044239;28;20647;-67
2022/02/14 05:28:39;;;;;;;;;;;;;;;;;;5047997;28;19920;-67
2022/02/14 05:31:07;;;;;;;;;;;;;;;;;;5043574;28;19927;-66
2022/02/14 05:33:35;;;;;;;;;;;;;;;;;;5045614;28;19937;-67
2022/02/14 05:36:01;;;;;;;;;;;;;;;;;;5041045;28;19987;-67
2022/02/14 05:38:27;;;;;;;;;;;;;;;;;;5028785;28;19927;-66
2022/02/14 05:40:53;;;;;;;;;;;;;;;;;;5024563;28;20012;-67
2022/02/14 05:43:19;;;;;;;;;;;;;;;;;;5044683;28;20247;-67
2022/02/14 05:45:45;;;;;;;;;;;;;;;;;;5040594;28;20019;-67
2022/02/14 05:48:11;;;;;;;;;;;;;;;;;;5043897;28;19912;-67
2022/02/14 05:50:37;;;;;;;;;;;;;;;;;;5044566;28;19928;-67
2022/02/14 05:53:03;;;;;;;;;;;;;;;;;;5046083;28;20751;-66
2022/02/14 05:55:29;;;;;;;;;;;;;;;;;;5055398;28;21520;-67
2022/02/14 05:57:56;;;;;;;;;;;;;;;;;;5044459;28;19916;-68
2022/02/14 06:00:22;;;;;;;;;;;;;;;;;;5034208;28;20479;-67
2022/02/14 06:02:50;;;;;;;;;;;;;;;;;;5024265;28;19924;-66
2022/02/14 06:05:16;;;;;;;;;;;;;;;;;;5032474;28;19986;-67
2022/02/14 06:07:42;;;;;;;;;;;;;;;;;;5028674;28;19921;-67
2022/02/14 06:10:08;;;;;;;;;;;;;;;;;;5029921;28;19920;-66
2022/02/14 06:12:34;;;;;;;;;;;;;;;;;;5033347;28;19921;-67
2022/02/14 06:15:01;;;;;;;;;;;;;;;;;;5028420;28;19924;-67
2022/02/14 06:17:27;;;;;;;;;;;;;;;;;;5027517;28;19917;-67
2022/02/14 06:19:54;;;;;;;;;;;;;;;;;;5026617;28;20446;-66
2022/02/14 06:22:21;;;;;;;;;;;;;;;;;;5027924;28;19939;-67
2022/02/14 06:24:47;;;;;;;;;;;;;;;;;;5024721;28;19917;-67
2022/02/14 06:27:13;;;;;;;;;;;;;;;;;;5032664;28;19920;-67
2022/02/14 06:29:39;;;;;;;;;;;;;;;;;;5027279;28;19917;-67
2022/02/14 06:32:05;;;;;;;;;;;;;;;;;;5033791;28;19920;-67
2022/02/14 06:34:33;;;;;;;;;;;;;;;;;;5023953;28;19924;-67
2022/02/14 06:36:59;;;;;;;;;;;;;;;;;;5025484;28;19927;-67
2022/02/14 06:39:25;;;;;;;;;;;;;;;;;;5031126;28;19916;-67
2022/02/14 06:41:52;;;;;;;;;;;;;;;;;;5019933;28;19917;-67
2022/02/14 06:44:18;;;;;;;;;;;;;;;;;;5031557;28;19917;-67
2022/02/14 06:46:44;;;;;;;;;;;;;;;;;;5020659;28;19916;-67
2022/02/14 06:49:11;;;;;;;;;;;;;;;;;;5018809;28;19995;-67
2022/02/14 06:51:39;;;;;;;;;;;;;;;;;;5026402;28;20028;-67
2022/02/14 06:54:05;;;;;;;;;;;;;;;;;;5022938;28;19921;-67
2022/02/14 06:56:35;;;;;;;;;;;;;;;;;;5024352;28;19921;-67
2022/02/14 06:59:02;;;;;;;;;;;;;;;;;;5024350;28;19913;-67
2022/02/14 07:01:28;;;;;;;;;;;;;;;;;;5019281;28;19921;-67
2022/02/14 07:03:54;;;;;;;;;;;;;;;;;;5021671;28;20158;-67
2022/02/14 07:06:20;;;;;;;;;;;;;;;;;;5009161;28;20646;-67
2022/02/14 07:08:48;;;;;;;;;;;;;;;;;;5022566;28;19917;-67
2022/02/14 07:11:14;;;;;;;;;;;;;;;;;;5023636;28;19999;-67
2022/02/14 07:13:40;;;;;;;;;;;;;;;;;;5024596;28;19995;-67
2022/02/14 07:16:07;;;;;;;;;;;;;;;;;;5005994;28;19921;-67
2022/02/14 07:18:34;;;;;;;;;;;;;;;;;;5023910;28;19917;-67
2022/02/14 07:21:00;;;;;;;;;;;;;;;;;;5006354;28;20393;-67
2022/02/14 07:23:27;;;;;;;;;;;;;;;;;;5020672;28;19940;-67
2022/02/14 07:25:53;;;;;;;;;;;;;;;;;;5024316;28;20529;-67
2022/02/14 07:28:19;;;;;;;;;;;;;;;;;;5021758;28;20031;-67
2022/02/14 07:30:45;;;;;;;;;;;;;;;;;;5020991;28;20005;-67
2022/02/14 07:33:11;;;;;;;;;;;;;;;;;;5030389;28;20364;-67
2022/02/14 07:35:37;;;;;;;;;;;;;;;;;;5021758;28;19958;-67
2022/02/14 07:38:03;;;;;;;;;;;;;;;;;;5037027;28;21168;-70
2022/02/14 07:40:29;;;;;;;;;;;;;;;;;;5027348;28;20335;-67
2022/02/14 07:42:56;;;;;;;;;;;;;;;;;;5018110;28;19916;-67
2022/02/14 07:45:23;;;;;;;;;;;;;;;;;;5011687;28;19917;-67
2022/02/14 07:47:49;;;;;;;;;;;;;;;;;;5015311;28;19925;-66
2022/02/14 07:50:16;;;;;;;;;;;;;;;;;;4990475;28;19932;-67
2022/02/14 07:52:42;;;;;;;;;;;;;;;;;;4998830;28;19921;-67
2022/02/14 07:55:08;;;;;;;;;;;;;;;;;;4981898;28;19967;-66
2022/02/14 07:57:36;;;;;;;;;;;;;;;;;;4984482;28;19921;-69
2022/02/14 08:00:03;;;;;;;;;;;;;;;;;;4989689;28;22842;-67
2022/02/14 08:02:30;;;;;;;;;;;;;;;;;;4982337;28;19941;-67
2022/02/14 08:04:57;;;;;;;;;;;;;;;;;;4980942;28;19914;-67
2022/02/14 08:07:24;;;;;;;;;;;;;;;;;;4983093;28;19917;-67
2022/02/14 08:09:51;;;;;;;;;;;;;;;;;;4981639;28;19917;-67
2022/02/14 08:12:20;;;;;;;;;;;;;;;;;;4984557;28;20486;-67
2022/02/14 08:14:48;;;;;;;;;;;;;;;;;;4973784;28;19980;-67
2022/02/14 08:17:14;;;;;;;;;;;;;;;;;;4983809;28;19964;-66
2022/02/14 08:19:41;;;;;;;;;;;;;;;;;;4980091;28;19917;-66
2022/02/14 08:22:08;;;;;;;;;;;;;;;;;;4979378;28;20131;-66
2022/02/14 08:24:35;;;;;;;;;;;;;;;;;;4984838;28;19944;-66
2022/02/14 08:27:03;;;;;;;;;;;;;;;;;;4975810;28;19976;-66
2022/02/14 08:29:30;;;;;;;;;;;;;;;;;;4984968;28;19922;-66
2022/02/14 08:31:58;;;;;;;;;;;;;;;;;;4982219;28;20352;-67
2022/02/14 08:34:23;;;;;;;;;;;;;;;;;;4980439;28;19944;-68
2022/02/14 08:36:50;;;;;;;;;;;;;;;;;;4982256;28;19917;-67
2022/02/14 08:39:15;;;;;;;;;;;;;;;;;;4983935;28;19995;-68
2022/02/14 08:41:42;;;;;;;;;;;;;;;;;;4987840;28;20356;-67
2022/02/14 08:44:09;;;;;;;;;;;;;;;;;;4984378;28;19917;-67
2022/02/14 08:46:35;;;;;;;;;;;;;;;;;;4981395;28;19917;-67
2022/02/14 08:49:03;;;;;;;;;;;;;;;;;;4991201;28;19970;-67
2022/02/14 08:51:29;;;;;;;;;;;;;;;;;;5026178;28;19924;-67
2022/02/14 08:53:57;;;;;;;;;;;;;;;;;;5006881;28;19920;-67
2022/02/14 08:56:25;;;;;;;;;;;;;;;;;;5027402;28;20061;-67
2022/02/14 08:58:52;;;;;;;;;;;;;;;;;;5022522;28;20366;-67
2022/02/14 09:01:18;;;;;;;;;;;;;;;;;;5029956;28;20031;-68
2022/02/14 09:03:44;;;;;;;;;;;;;;;;;;5025384;28;19975;-68
2022/02/14 09:06:10;;;;;;;;;;;;;;;;;;5024027;28;20037;-69
2022/02/14 09:08:36;;;;;;;;;;;;;;;;;;5028425;28;20642;-68
2022/02/14 09:11:03;;;;;;;;;;;;;;;;;;5018617;28;19928;-68
2022/02/14 09:13:31;;;;;;;;;;;;;;;;;;5025513;28;20202;-68
2022/02/14 09:15:58;;;;;;;;;;;;;;;;;;5021251;28;19929;-68
2022/02/14 09:18:23;;;;;;;;;;;;;;;;;;5011024;28;19966;-68
2022/02/14 09:20:50;;;;;;;;;;;;;;;;;;5019344;28;20008;-68
2022/02/14 09:23:16;;;;;;;;;;;;;;;;;;5025039;28;19979;-68
2022/02/14 09:25:43;;;;;;;;;;;;;;;;;;5026730;28;19931;-68
2022/02/14 09:28:09;;;;;;;;;;;;;;;;;;5022472;28;19975;-68
2022/02/14 09:30:36;;;;;;;;;;;;;;;;;;5028092;28;20434;-69
2022/02/14 09:33:02;;;;;;;;;;;;;;;;;;5020575;28;19941;-68
2022/02/14 09:35:29;;;;;;;;;;;;;;;;;;5025806;28;19928;-67
2022/02/14 09:37:56;;;;;;;;;;;;;;;;;;5021768;28;20264;-68
2022/02/14 09:40:22;;;;;;;;;;;;;;;;;;5024538;28;19917;-68
2022/02/14 09:42:49;;;;;;;;;;;;;;;;;;5023349;28;20003;-67
2022/02/14 09:45:15;;;;;;;;;;;;;;;;;;5025645;28;19994;-68
2022/02/14 09:47:41;;;;;;;;;;;;;;;;;;5024510;28;19917;-67
2022/02/14 09:50:08;;;;;;;;;;;;;;;;;;5026275;28;19921;-68
2022/02/14 09:52:35;;;;;;;;;;;;;;;;;;5023391;28;19917;-67
2022/02/14 09:55:04;;;;;;;;;;;;;;;;;;5005864;28;20011;-68
2022/02/14 09:57:31;;;;;;;;;;;;;;;;;;5026500;28;19959;-67
2022/02/14 09:59:57;;;;;;;;;;;;;;;;;;5002112;28;20689;-69
2022/02/14 10:02:25;;;;;;;;;;;;;;;;;;5013075;28;19928;-68
2022/02/14 10:04:53;;;;;;;;;;;;;;;;;;5018609;28;19916;-67
2022/02/14 10:07:19;;;;;;;;;;;;;;;;;;5009534;28;19940;-67
2022/02/14 10:09:46;;;;;;;;;;;;;;;;;;5022148;28;19917;-68
2022/02/14 10:12:13;;;;;;;;;;;;;;;;;;5025800;28;20024;-67
2022/02/14 10:14:42;;;;;;;;;;;;;;;;;;5025771;28;20070;-67
2022/02/14 10:17:09;;;;;;;;;;;;;;;;;;5025243;28;20018;-68
2022/02/14 10:19:36;;;;;;;;;;;;;;;;;;5019900;28;19917;-67
2022/02/14 10:22:03;;;;;;;;;;;;;;;;;;5041946;28;21316;-67
2022/02/14 10:24:31;;;;;;;;;;;;;;;;;;5023090;28;19916;-67
2022/02/14 10:26:59;;;;;;;;;;;;;;;;;;5020326;28;19917;-68
2022/02/14 10:29:25;;;;;;;;;;;;;;;;;;5026813;28;20605;-68
2022/02/14 10:31:53;;;;;;;;;;;;;;;;;;5018304;28;19921;-68
2022/02/14 10:34:20;;;;;;;;;;;;;;;;;;5027243;28;19944;-68
2022/02/14 10:36:46;;;;;;;;;;;;;;;;;;5026244;28;19963;-68
2022/02/14 10:39:13;;;;;;;;;;;;;;;;;;5023753;28;20536;-68
2022/02/14 10:41:40;;;;;;;;;;;;;;;;;;5012295;28;20260;-68
2022/02/14 10:44:06;;;;;;;;;;;;;;;;;;5002357;28;20346;-68
2022/02/14 10:46:33;;;;;;;;;;;;;;;;;;5024666;28;20343;-68
2022/02/14 10:48:59;;;;;;;;;;;;;;;;;;5002040;28;19920;-69
2022/02/14 10:51:26;;;;;;;;;;;;;;;;;;5007579;28;19921;-69
2022/02/14 10:53:52;;;;;;;;;;;;;;;;;;5023046;28;20035;-68
2022/02/14 10:56:19;;;;;;;;;;;;;;;;;;5002825;28;19916;-68
2022/02/14 10:58:46;;;;;;;;;;;;;;;;;;4994219;28;19921;-68
2022/02/14 11:01:15;;;;;;;;;;;;;;;;;;4997208;28;19927;-68
2022/02/14 11:03:41;;;;;;;;;;;;;;;;;;5015233;28;19913;-69
2022/02/14 11:06:07;;;;;;;;;;;;;;;;;;5005828;28;19928;-69
2022/02/14 11:08:34;;;;;;;;;;;;;;;;;;5004105;28;20783;-68
2022/02/14 11:11:02;;;;;;;;;;;;;;;;;;5017725;28;19964;-68
2022/02/14 11:13:30;;;;;;;;;;;;;;;;;;5033581;28;19921;-69
2022/02/14 11:15:57;;;;;;;;;;;;;;;;;;5037022;28;20014;-69
2022/02/14 11:18:23;;;;;;;;;;;;;;;;;;5040346;28;20415;-68
2022/02/14 11:20:50;;;;;;;;;;;;;;;;;;5036050;28;19938;-68
2022/02/14 11:23:17;;;;;;;;;;;;;;;;;;5053297;28;20015;-68
2022/02/14 11:25:44;;;;;;;;;;;;;;;;;;5020679;28;20027;-68
2022/02/14 11:28:10;;;;;;;;;;;;;;;;;;5037996;28;19979;-67
2022/02/14 11:30:37;;;;;;;;;;;;;;;;;;5053505;28;20676;-67
2022/02/14 11:33:03;;;;;;;;;;;;;;;;;;5022920;28;20622;-67
2022/02/14 11:35:30;;;;;;;;;;;;;;;;;;5042207;28;20006;-67
2022/02/14 11:37:58;;;;;;;;;;;;;;;;;;5035390;28;19924;-67
2022/02/14 11:40:24;;;;;;;;;;;;;;;;;;5039335;28;19917;-67
2022/02/14 11:42:50;;;;;;;;;;;;;;;;;;5051795;28;19920;-67
2022/02/14 11:45:16;;;;;;;;;;;;;;;;;;5038579;28;19921;-67
2022/02/14 11:47:42;;;;;;;;;;;;;;;;;;5040851;28;20020;-67
2022/02/14 11:50:09;;;;;;;;;;;;;;;;;;5020211;28;19921;-67
2022/02/14 11:52:35;;;;;;;;;;;;;;;;;;5041471;28;19948;-67
2022/02/14 11:55:03;;;;;;;;;;;;;;;;;;5018569;28;20369;-67
2022/02/14 11:57:31;;;;;;;;;;;;;;;;;;5027020;28;19920;-67
2022/02/14 11:59:58;;;;;;;;;;;;;;;;;;5037523;28;20739;-67
2022/02/14 12:02:24;;;;;;;;;;;;;;;;;;5041044;28;19916;-67
2022/02/14 12:04:51;;;;;;;;;;;;;;;;;;5037994;28;19917;-68
2022/02/14 12:07:18;;;;;;;;;;;;;;;;;;5026245;28;19923;-68
2022/02/14 12:09:45;;;;;;;;;;;;;;;;;;5022508;28;19916;-68
2022/02/14 12:12:11;;;;;;;;;;;;;;;;;;5039694;28;19920;-68
2022/02/14 12:14:37;;;;;;;;;;;;;;;;;;5059556;28;19939;-67
2022/02/14 12:22:33;;;;;;;;;;;;;;;;;;5041474;28;19999;-67
2022/02/14 12:24:59;;;;;;;;;;;;;;;;;;5043923;28;19988;-68
2022/02/14 12:27:26;;;;;;;;;;;;;;;;;;5042279;28;20450;-68
2022/02/14 12:29:53;;;;;;;;;;;;;;;;;;5041762;28;19946;-69
2022/02/14 12:32:19;;;;;;;;;;;;;;;;;;5045062;28;20565;-68
2022/02/14 12:34:45;;;;;;;;;;;;;;;;;;5036939;28;19943;-67
2022/02/14 12:37:12;;;;;;;;;;;;;;;;;;5047390;28;19920;-66
2022/02/14 12:39:38;;;;;;;;;;;;;;;;;;5044966;28;19960;-69
2022/02/14 12:42:04;;;;;;;;;;;;;;;;;;5025235;28;20016;-67
2022/02/14 12:44:31;;;;;;;;;;;;;;;;;;5042472;28;19916;-67
2022/02/14 12:46:57;;;;;;;;;;;;;;;;;;5036735;28;19956;-67
2022/02/14 12:49:24;;;;;;;;;;;;;;;;;;5049465;28;19921;-71
2022/02/14 12:51:51;;;;;;;;;;;;;;;;;;5021490;28;19959;-67
2022/02/14 12:54:17;;;;;;;;;;;;;;;;;;5039903;28;19921;-67
2022/02/14 12:56:44;;;;;;;;;;;;;;;;;;5042765;28;20313;-67
2022/02/14 12:59:11;;;;;;;;;;;;;;;;;;5041944;28;21478;-67
2022/02/14 13:01:38;;;;;;;;;;;;;;;;;;5044876;28;20059;-67
2022/02/14 13:04:04;;;;;;;;;;;;;;;;;;5035561;28;19928;-67
2022/02/14 13:06:30;;;;;;;;;;;;;;;;;;5041782;28;19920;-67
2022/02/14 13:08:56;;;;;;;;;;;;;;;;;;5019393;28;19966;-67
2022/02/14 13:11:22;;;;;;;;;;;;;;;;;;5039218;28;20381;-67
2022/02/14 13:13:48;;;;;;;;;;;;;;;;;;5043174;28;20379;-67
2022/02/14 13:16:15;;;;;;;;;;;;;;;;;;5041634;28;19917;-68
2022/02/14 13:18:42;;;;;;;;;;;;;;;;;;5044705;28;19923;-68
2022/02/14 13:21:08;;;;;;;;;;;;;;;;;;5039583;28;19916;-67
2022/02/14 13:23:34;;;;;;;;;;;;;;;;;;5040900;28;19912;-68
2022/02/14 13:26:01;;;;;;;;;;;;;;;;;;5040617;28;19916;-68
2022/02/14 13:28:27;;;;;;;;;;;;;;;;;;5041404;28;19976;-67
2022/02/14 13:30:53;;;;;;;;;;;;;;;;;;5037569;28;20107;-68
2022/02/14 13:33:20;;;;;;;;;;;;;;;;;;5043018;28;19916;-68
2022/02/14 13:35:47;;;;;;;;;;;;;;;;;;5032795;28;20406;-68
2022/02/14 13:38:14;;;;;;;;;;;;;;;;;;5027938;28;20517;-68
2022/02/14 13:40:41;;;;;;;;;;;;;;;;;;5040855;28;19970;-68
2022/02/14 13:43:08;;;;;;;;;;;;;;;;;;5041381;28;19920;-68
2022/02/14 13:45:35;;;;;;;;;;;;;;;;;;5045786;28;19943;-68
2022/02/14 13:48:01;;;;;;;;;;;;;;;;;;5036115;28;19916;-68
2022/02/14 13:50:27;;;;;;;;;;;;;;;;;;5041747;28;20671;-68
2022/02/14 13:52:53;;;;;;;;;;;;;;;;;;5036545;28;19970;-67
2022/02/14 13:55:24;;;;;;;;;;;;;;;;;;5041266;28;19942;-68
2022/02/14 13:57:51;;;;;;;;;;;;;;;;;;5019451;28;20036;-67
2022/02/14 14:00:17;;;;;;;;;;;;;;;;;;5042831;28;20012;-69
2022/02/14 14:02:44;;;;;;;;;;;;;;;;;;5038246;28;20299;-69
2022/02/14 14:05:12;;;;;;;;;;;;;;;;;;5038218;28;19913;-68
2022/02/14 14:07:38;;;;;;;;;;;;;;;;;;5041525;28;19920;-69
2022/02/14 14:10:04;;;;;;;;;;;;;;;;;;5036537;28;19942;-69
2022/02/14 14:12:31;;;;;;;;;;;;;;;;;;5043658;28;19923;-69
2022/02/14 14:14:57;;;;;;;;;;;;;;;;;;5036992;28;19916;-69
2022/02/14 14:17:25;;;;;;;;;;;;;;;;;;5040937;28;20466;-69
2022/02/14 14:19:53;;;;;;;;;;;;;;;;;;5034680;28;19927;-71
2022/02/14 14:22:20;;;;;;;;;;;;;;;;;;5042562;28;19920;-69
2022/02/14 14:24:46;;;;;;;;;;;;;;;;;;5021125;28;19927;-68
2022/02/14 14:27:13;;;;;;;;;;;;;;;;;;5045789;28;19969;-69
2022/02/14 14:29:40;;;;;;;;;;;;;;;;;;5043428;28;19951;-69
2022/02/14 14:32:08;;;;;;;;;;;;;;;;;;5040724;28;19956;-69
2022/02/14 14:34:35;;;;;;;;;;;;;;;;;;5023603;28;19978;-69
2022/02/14 14:37:01;;;;;;;;;;;;;;;;;;5038387;28;20417;-69
2022/02/14 14:39:28;;;;;;;;;;;;;;;;;;5042769;28;19927;-69
2022/02/14 14:41:54;;;;;;;;;;;;;;;;;;5037523;28;19938;-69
2022/02/14 14:44:22;;;;;;;;;;;;;;;;;;5042387;28;19916;-69
2022/02/14 14:46:50;;;;;;;;;;;;;;;;;;5035726;28;19920;-69
2022/02/14 14:49:17;;;;;;;;;;;;;;;;;;5039774;28;19963;-69
2022/02/14 14:51:43;;;;;;;;;;;;;;;;;;5038500;28;20454;-69
2022/02/14 14:54:09;;;;;;;;;;;;;;;;;;5042223;28;20011;-68
2022/02/14 14:56:36;;;;;;;;;;;;;;;;;;5021300;28;19917;-69
2022/02/14 14:59:05;;;;;;;;;;;;;;;;;;5041530;28;19920;-69
2022/02/14 15:01:32;;;;;;;;;;;;;;;;;;5015441;28;19939;-69
2022/02/14 15:03:58;;;;;;;;;;;;;;;;;;5024102;28;19917;-69
2022/02/14 15:06:24;;;;;;;;;;;;;;;;;;5042834;28;20515;-69
2022/02/14 15:08:50;;;;;;;;;;;;;;;;;;5041363;28;20011;-71
2022/02/14 15:11:17;;;;;;;;;;;;;;;;;;5028099;28;19946;-69
2022/02/14 15:13:45;;;;;;;;;;;;;;;;;;5038846;28;20013;-70
2022/02/14 15:16:12;;;;;;;;;;;;;;;;;;5044699;28;20138;-70
2022/02/14 15:18:39;;;;;;;;;;;;;;;;;;5025205;28;20026;-69
2022/02/14 15:21:05;;;;;;;;;;;;;;;;;;5036874;28;19916;-70
2022/02/14 15:23:31;;;;;;;;;;;;;;;;;;5044412;28;19978;-70
2022/02/14 15:25:57;;;;;;;;;;;;;;;;;;5038520;28;19913;-69
2022/02/14 15:28:23;;;;;;;;;;;;;;;;;;5043534;28;19912;-70
2022/02/14 15:30:49;;;;;;;;;;;;;;;;;;5036564;28;20504;-68
2022/02/14 15:33:16;;;;;;;;;;;;;;;;;;5023616;28;20589;-68
2022/02/14 15:35:43;;;;;;;;;;;;;;;;;;5037073;28;20033;-69
2022/02/14 15:38:10;;;;;;;;;;;;;;;;;;5036331;28;19959;-69
2022/02/14 15:40:36;;;;;;;;;;;;;;;;;;5037318;28;19969;-69
2022/02/14 15:43:03;;;;;;;;;;;;;;;;;;5033789;28;19924;-69
2022/02/14 15:45:30;;;;;;;;;;;;;;;;;;5041225;28;20043;-69
2022/02/14 15:48:00;;;;;;;;;;;;;;;;;;5039374;28;19923;-69
2022/02/14 15:50:27;;;;;;;;;;;;;;;;;;5060702;28;19931;-69
2022/02/14 15:52:53;;;;;;;;;;;;;;;;;;5040071;28;19916;-69
2022/02/14 15:55:19;;;;;;;;;;;;;;;;;;5046125;28;19935;-70
2022/02/14 15:57:45;;;;;;;;;;;;;;;;;;5041301;28;20003;-70
2022/02/14 16:00:11;;;;;;;;;;;;;;;;;;5041981;28;19995;-70
2022/02/14 16:02:37;;;;;;;;;;;;;;;;;;5044478;28;20424;-69
2022/02/14 16:05:03;;;;;;;;;;;;;;;;;;5041034;28;19951;-69
2022/02/14 16:07:29;;;;;;;;;;;;;;;;;;5043705;28;20474;-69
2022/02/14 16:09:56;;;;;;;;;;;;;;;;;;5040345;28;19924;-71
2022/02/14 16:12:23;;;;;;;;;;;;;;;;;;5046380;28;19963;-69
2022/02/14 16:14:50;;;;;;;;;;;;;;;;;;5042824;28;20058;-70
2022/02/14 16:17:16;;;;;;;;;;;;;;;;;;5032771;28;20665;-70
2022/02/14 16:19:43;;;;;;;;;;;;;;;;;;4939355;28;19932;-70
2022/02/14 16:22:10;;;;;;;;;;;;;;;;;;4869732;28;19920;-70
2022/02/14 16:24:38;;;;;;;;;;;;;;;;;;4844651;28;20461;-70
2022/02/14 16:27:04;;;;;;;;;;;;;;;;;;4878100;28;20194;-70
2022/02/14 16:29:32;;;;;;;;;;;;;;;;;;4883984;28;20061;-70
2022/02/14 16:31:58;;;;;;;;;;;;;;;;;;4857444;28;20201;-70
2022/02/14 16:34:24;;;;;;;;;;;;;;;;;;4861223;28;21311;-70
2022/02/14 16:36:51;;;;;;;;;;;;;;;;;;4877743;28;20563;-71
2022/02/14 16:39:17;;;;;;;;;;;;;;;;;;4879572;28;19916;-69
2022/02/14 16:41:44;;;;;;;;;;;;;;;;;;4864705;28;20908;-70
2022/02/14 16:44:10;;;;;;;;;;;;;;;;;;4867436;28;19916;-70
2022/02/14 16:46:37;;;;;;;;;;;;;;;;;;4844694;28;19920;-70